createdAt,value
2023-03-27T00:01:36.692Z,96381.20
2023-03-27T00:04:05.811Z,96374.56
2023-03-27T00:06:34.766Z,96373.24
2023-03-27T00:09:04.965Z,96371.88
2023-03-27T00:11:33.311Z,96364.11
2023-03-27T00:14:01.798Z,96361.74
2023-03-27T00:16:30.707Z,96349.28
2023-03-27T00:18:59.120Z,96345.27
2023-03-27T00:21:28.357Z,96330.61
2023-03-27T00:23:56.901Z,96313.01
2023-03-27T00:26:26.671Z,96298.02
2023-03-27T00:28:54.933Z,96287.58
2023-03-27T00:31:23.169Z,96275.41
2023-03-27T00:33:51.846Z,96262.86
2023-03-27T00:36:20.189Z,96253.13
2023-03-27T00:38:48.707Z,96248.09
2023-03-27T00:41:17.153Z,96246.54
2023-03-27T00:43:45.494Z,96244.14
2023-03-27T00:46:36.693Z,96243.33
2023-03-27T00:49:09.921Z,96248.58
2023-03-27T00:51:40.439Z,96251.59
2023-03-27T00:54:09.985Z,96259.23
2023-03-27T00:56:38.954Z,96260.47
2023-03-27T00:59:11.840Z,96263.39
2023-03-27T01:01:40.744Z,96265.06
2023-03-27T01:04:09.935Z,96267.91
2023-03-27T01:06:42.344Z,96267.95
2023-03-27T01:09:11.315Z,96258.08
2023-03-27T01:12:01.710Z,96249.02
2023-03-27T01:15:02.764Z,96245.00
2023-03-27T01:17:53.469Z,96244.10
2023-03-27T01:21:06.372Z,96238.95
2023-03-27T01:24:08.825Z,96238.19
2023-03-27T01:26:58.875Z,96240.41
2023-03-27T01:29:39.281Z,96238.29
2023-03-27T01:32:57.267Z,96238.05
2023-03-27T01:35:37.318Z,96231.53
2023-03-27T01:38:15.989Z,96229.52
2023-03-27T01:41:09.531Z,96228.52
2023-03-27T01:44:16.352Z,96219.19
2023-03-27T01:46:57.774Z,96215.77
2023-03-27T01:49:34.229Z,96216.30
2023-03-27T01:52:05.904Z,96211.11
2023-03-27T01:54:38.720Z,96206.59
2023-03-27T01:57:25.042Z,96199.06
2023-03-27T02:00:18.376Z,96192.42
2023-03-27T02:03:09.608Z,96184.14
2023-03-27T02:05:53.659Z,96173.91
2023-03-27T02:08:40.086Z,96173.90
2023-03-27T02:11:24.060Z,96157.60
2023-03-27T02:13:58.385Z,96151.94
2023-03-27T02:16:34.598Z,96150.20
2023-03-27T02:19:11.714Z,96148.73
2023-03-27T02:21:40.105Z,96143.45
2023-03-27T02:24:09.154Z,96144.08
2023-03-27T02:26:38.301Z,96140.42
2023-03-27T02:29:34.043Z,96136.61
2023-03-27T02:32:17.463Z,96135.19
2023-03-27T02:35:03.780Z,96127.98
2023-03-27T02:38:00.331Z,96117.46
2023-03-27T02:41:06.163Z,96110.65
2023-03-27T02:44:12.530Z,96106.80
2023-03-27T02:47:12.039Z,96106.60
2023-03-27T02:49:55.257Z,96102.45
2023-03-27T02:52:28.659Z,96102.69
2023-03-27T02:55:07.609Z,96104.66
2023-03-27T02:57:39.304Z,96106.05
2023-03-27T03:00:33.683Z,96103.48
2023-03-27T03:03:33.970Z,96100.30
2023-03-27T03:06:11.469Z,96100.29
2023-03-27T03:08:40.471Z,96100.61
2023-03-27T03:11:14.569Z,96098.92
2023-03-27T03:13:42.756Z,96100.16
2023-03-27T03:16:11.478Z,96102.63
2023-03-27T03:18:41.509Z,96102.73
2023-03-27T03:21:09.997Z,96096.05
2023-03-27T03:23:39.477Z,96090.73
2023-03-27T03:26:08.782Z,96089.77
2023-03-27T03:29:00.660Z,96082.28
2023-03-27T03:31:44.515Z,96079.80
2023-03-27T03:34:16.759Z,96078.92
2023-03-27T03:36:49.769Z,96067.59
2023-03-27T03:39:23.036Z,96054.52
2023-03-27T03:41:51.808Z,96040.41
2023-03-27T03:44:20.310Z,96046.04
2023-03-27T03:46:49.030Z,96053.35
2023-03-27T03:49:22.124Z,96060.27
2023-03-27T03:52:04.351Z,96059.92
2023-03-27T03:54:33.756Z,96052.19
2023-03-27T03:57:03.611Z,96036.61
2023-03-27T03:59:33.312Z,96028.23
2023-03-27T04:02:31.672Z,96023.25
2023-03-27T04:05:11.819Z,96019.44
2023-03-27T04:07:41.382Z,96006.64
2023-03-27T04:10:21.547Z,95997.62
2023-03-27T04:12:50.827Z,95992.61
2023-03-27T04:15:29.036Z,95996.91
2023-03-27T04:18:04.585Z,95996.33
2023-03-27T04:20:34.932Z,95993.84
2023-03-27T04:23:05.110Z,95990.30
2023-03-27T04:25:36.843Z,95995.81
2023-03-27T04:28:05.940Z,95995.14
2023-03-27T04:30:44.348Z,96002.66
2023-03-27T04:33:18.783Z,96001.66
2023-03-27T04:36:12.140Z,95995.16
2023-03-27T04:38:48.131Z,95987.20
2023-03-27T04:41:17.855Z,95987.89
2023-03-27T04:43:46.342Z,95974.34
2023-03-27T04:46:15.042Z,95962.88
2023-03-27T04:48:44.051Z,95962.38
2023-03-27T04:51:28.062Z,95950.94
2023-03-27T04:53:56.674Z,95946.46
2023-03-27T04:56:26.093Z,95951.52
2023-03-27T04:58:56.005Z,95950.50
2023-03-27T05:01:25.479Z,95948.26
2023-03-27T05:03:53.839Z,95943.20
2023-03-27T05:06:49.654Z,95932.19
2023-03-27T05:09:19.180Z,95919.17
2023-03-27T05:11:50.154Z,95916.62
2023-03-27T05:14:21.601Z,95912.18
2023-03-27T05:16:52.500Z,95915.02
2023-03-27T05:19:21.375Z,95915.80
2023-03-27T05:21:58.203Z,95907.45
2023-03-27T05:24:27.300Z,95898.23
2023-03-27T05:26:55.877Z,95896.98
2023-03-27T05:29:24.505Z,95894.80
2023-03-27T05:32:01.289Z,95893.38
2023-03-27T05:34:34.890Z,95898.38
2023-03-27T05:37:06.312Z,95891.73
2023-03-27T05:39:41.600Z,95894.70
2023-03-27T05:42:10.653Z,95895.03
2023-03-27T05:44:38.835Z,95893.54
2023-03-27T05:47:07.048Z,95898.03
2023-03-27T05:49:36.804Z,95901.77
2023-03-27T05:52:12.293Z,95899.45
2023-03-27T05:54:40.424Z,95893.59
2023-03-27T05:57:12.819Z,95888.29
2023-03-27T05:59:41.896Z,95888.73
2023-03-27T06:02:20.684Z,95883.29
2023-03-27T06:04:56.709Z,95875.89
2023-03-27T06:07:30.471Z,95869.25
2023-03-27T06:10:03.587Z,95865.74
2023-03-27T06:13:05.384Z,95867.04
2023-03-27T06:15:41.645Z,95872.87
2023-03-27T06:18:27.374Z,95876.66
2023-03-27T06:20:56.356Z,95871.58
2023-03-27T06:23:25.310Z,95871.58
2023-03-27T06:25:54.087Z,95870.11
2023-03-27T06:28:25.742Z,95869.14
2023-03-27T06:30:54.920Z,95868.33
2023-03-27T06:33:29.876Z,95864.73
2023-03-27T06:36:01.634Z,95861.13
2023-03-27T06:38:37.424Z,95857.52
2023-03-27T06:41:21.129Z,95853.50
2023-03-27T06:44:09.935Z,95848.83
2023-03-27T06:46:53.787Z,95834.04
2023-03-27T06:49:39.355Z,95830.52
2023-03-27T06:52:15.165Z,95823.49
2023-03-27T06:54:44.554Z,95816.80
2023-03-27T06:57:15.747Z,95816.67
2023-03-27T07:00:00.876Z,95823.80
2023-03-27T07:02:49.823Z,95825.98
2023-03-27T07:05:44.067Z,95829.83
2023-03-27T07:10:56.349Z,95823.73
2023-03-27T07:13:29.257Z,95817.01
2023-03-27T07:15:59.638Z,95818.41
2023-03-27T07:18:28.915Z,95819.65
2023-03-27T07:20:57.752Z,95821.13
2023-03-27T07:23:27.013Z,95824.21
2023-03-27T07:26:01.612Z,95821.92
2023-03-27T07:28:50.566Z,95824.23
2023-03-27T07:31:33.038Z,95820.51
2023-03-27T07:34:08.920Z,95822.40
2023-03-27T07:36:57.640Z,95822.79
2023-03-27T07:39:25.919Z,95815.30
2023-03-27T07:41:55.770Z,95812.17
2023-03-27T07:44:29.299Z,95807.67
2023-03-27T07:47:02.190Z,95806.78
2023-03-27T07:49:39.985Z,95809.45
2023-03-27T07:52:16.615Z,95802.77
2023-03-27T07:54:57.200Z,95797.87
2023-03-27T07:57:31.668Z,95791.35
2023-03-27T08:00:11.944Z,95785.07
2023-03-27T08:02:52.243Z,95783.21
2023-03-27T08:05:21.227Z,95779.55
2023-03-27T08:07:59.088Z,95781.20
2023-03-27T08:10:47.633Z,95784.05
2023-03-27T08:13:18.720Z,95793.23
2023-03-27T08:15:47.465Z,95798.02
2023-03-27T08:18:22.716Z,95791.38
2023-03-27T08:20:57.586Z,95781.73
2023-03-27T08:23:27.811Z,95774.45
2023-03-27T08:26:16.510Z,95773.85
2023-03-27T08:29:10.974Z,95776.16
2023-03-27T08:31:39.851Z,95774.54
2023-03-27T08:34:09.501Z,95774.43
2023-03-27T08:36:45.350Z,95770.99
2023-03-27T08:39:14.390Z,95770.95
2023-03-27T08:41:55.524Z,95767.91
2023-03-27T08:44:32.084Z,95766.46
2023-03-27T08:47:13.732Z,95769.06
2023-03-27T08:49:53.253Z,95770.19
2023-03-27T08:52:32.155Z,95766.74
2023-03-27T08:55:15.873Z,95761.84
2023-03-27T08:57:51.740Z,95759.56
2023-03-27T09:00:28.114Z,95759.46
2023-03-27T09:03:33.155Z,95760.40
2023-03-27T09:06:39.804Z,95758.11
2023-03-27T09:09:33.399Z,95759.29
2023-03-27T09:12:40.688Z,95760.36
2023-03-27T09:15:26.474Z,95760.42
2023-03-27T09:18:06.388Z,95758.30
2023-03-27T09:20:41.163Z,95750.49
2023-03-27T09:23:24.771Z,95748.65
2023-03-27T09:26:24.357Z,95748.77
2023-03-27T09:29:20.607Z,95747.16
2023-03-27T09:31:56.799Z,95745.00
2023-03-27T09:34:34.527Z,95739.59
2023-03-27T09:37:04.951Z,95732.29
2023-03-27T09:39:36.784Z,95726.71
2023-03-27T09:42:29.535Z,95721.57
2023-03-27T09:45:02.995Z,95715.64
2023-03-27T09:47:37.744Z,95715.10
2023-03-27T09:50:35.478Z,95708.94
2023-03-27T09:53:12.519Z,95708.48
2023-03-27T09:56:13.104Z,95709.66
2023-03-27T09:58:47.043Z,95709.76
2023-03-27T10:01:35.283Z,95705.61
2023-03-27T10:04:19.476Z,95700.09
2023-03-27T10:07:02.271Z,95699.16
2023-03-27T10:10:15.833Z,95693.03
2023-03-27T10:13:22.266Z,95685.95
2023-03-27T10:16:01.938Z,95679.42
2023-03-27T10:18:42.417Z,95676.47
2023-03-27T10:21:39.890Z,95685.35
2023-03-27T10:24:17.437Z,95691.17
2023-03-27T10:27:08.338Z,95682.35
2023-03-27T10:29:41.081Z,95679.65
2023-03-27T10:32:13.253Z,95676.89
2023-03-27T10:34:58.388Z,95668.54
2023-03-27T10:37:50.484Z,95659.91
2023-03-27T10:40:51.301Z,95656.02
2023-03-27T10:43:42.850Z,95651.27
2023-03-27T10:46:22.128Z,95645.91
2023-03-27T10:49:10.079Z,95650.75
2023-03-27T10:51:47.089Z,95657.27
2023-03-27T10:54:54.932Z,95656.38
2023-03-27T10:57:31.916Z,95651.52
2023-03-27T11:00:16.926Z,95649.17
2023-03-27T11:03:13.256Z,95642.92
2023-03-27T11:05:46.914Z,95640.50
2023-03-27T11:08:35.858Z,95642.34
2023-03-27T11:11:30.174Z,95633.83
2023-03-27T11:14:04.120Z,95631.82
2023-03-27T11:16:36.123Z,95627.98
2023-03-27T11:19:43.113Z,95627.39
2023-03-27T11:22:56.442Z,95622.45
2023-03-27T11:25:47.145Z,95618.83
2023-03-27T11:28:46.698Z,95611.80
2023-03-27T11:31:40.312Z,95608.33
2023-03-27T11:34:34.834Z,95597.27
2023-03-27T11:37:29.612Z,95594.49
2023-03-27T11:40:06.194Z,95591.00
2023-03-27T11:42:42.891Z,95583.21
2023-03-27T11:45:14.850Z,95573.17
2023-03-27T11:47:48.365Z,95567.71
2023-03-27T11:50:47.699Z,95563.06
2023-03-27T11:53:19.847Z,95561.73
2023-03-27T11:56:12.623Z,95557.38
2023-03-27T11:59:07.473Z,95558.49
2023-03-27T12:02:14.606Z,95558.00
2023-03-27T12:04:49.308Z,95555.14
2023-03-27T12:07:48.171Z,95545.20
2023-03-27T12:10:34.052Z,95541.20
2023-03-27T12:13:42.717Z,95542.54
2023-03-27T12:16:28.465Z,95539.01
2023-03-27T12:19:38.569Z,95539.30
2023-03-27T12:22:34.205Z,95533.85
2023-03-27T12:25:18.715Z,95533.95
2023-03-27T12:28:26.068Z,95537.02
2023-03-27T12:31:15.224Z,95543.59
2023-03-27T12:33:44.051Z,95544.80
2023-03-27T12:36:25.112Z,95547.12
2023-03-27T12:38:56.110Z,95545.09
2023-03-27T12:41:35.722Z,95542.66
2023-03-27T12:44:19.146Z,95544.40
2023-03-27T12:47:16.271Z,95542.32
2023-03-27T12:49:58.543Z,95539.26
2023-03-27T12:52:31.580Z,95537.70
2023-03-27T12:55:18.722Z,95537.46
2023-03-27T12:58:01.312Z,95534.00
2023-03-27T13:01:01.060Z,95530.74
2023-03-27T13:04:08.581Z,95530.93
2023-03-27T13:07:05.508Z,95530.48
2023-03-27T13:10:16.517Z,95529.83
2023-03-27T13:13:17.371Z,95530.05
2023-03-27T13:16:11.930Z,95524.50
2023-03-27T13:18:55.798Z,95524.19
2023-03-27T13:21:47.395Z,95520.36
2023-03-27T13:24:43.951Z,95518.56
2023-03-27T13:27:34.413Z,95516.84
2023-03-27T13:30:04.693Z,95512.45
2023-03-27T13:33:24.216Z,95512.89
2023-03-27T13:36:02.799Z,95511.09
2023-03-27T13:38:52.117Z,95509.41
2023-03-27T13:41:46.558Z,95501.39
2023-03-27T13:45:01.402Z,95500.65
2023-03-27T13:47:35.349Z,95503.23
2023-03-27T13:50:19.096Z,95505.12
2023-03-27T13:52:56.842Z,95507.67
2023-03-27T13:56:17.771Z,95511.48
2023-03-27T13:59:34.584Z,95517.14
2023-03-27T14:03:04.603Z,95517.80
2023-03-27T14:05:59.676Z,95505.31
2023-03-27T14:09:08.218Z,95470.35
2023-03-27T14:11:45.372Z,95481.27
2023-03-27T14:14:32.626Z,95492.90
2023-03-27T14:17:25.962Z,95488.13
2023-03-27T14:20:08.420Z,95484.02
2023-03-27T14:22:53.806Z,95484.25
2023-03-27T14:25:36.652Z,95484.81
2023-03-27T14:28:32.636Z,95485.46
2023-03-27T14:31:07.561Z,95482.58
2023-03-27T14:34:03.613Z,95464.15
2023-03-27T14:36:34.265Z,95464.59
2023-03-27T14:39:14.822Z,95469.14
2023-03-27T14:42:03.338Z,95477.88
2023-03-27T14:44:33.719Z,95486.24
2023-03-27T14:47:14.468Z,95489.61
2023-03-27T14:49:50.114Z,95486.75
2023-03-27T14:52:35.598Z,95481.90
2023-03-27T14:55:32.471Z,95475.81
2023-03-27T14:58:27.875Z,95476.89
2023-03-27T15:01:01.747Z,95481.85
2023-03-27T15:03:37.201Z,95483.44
2023-03-27T15:06:17.470Z,95482.00
2023-03-27T15:09:00.838Z,95478.20
2023-03-27T15:11:55.476Z,95484.23
2023-03-27T15:14:29.345Z,95483.40
2023-03-27T15:17:03.233Z,95480.39
2023-03-27T15:19:49.737Z,95481.38
2023-03-27T15:22:30.097Z,95485.73
2023-03-27T15:25:18.187Z,95488.11
2023-03-27T15:27:53.109Z,95488.48
2023-03-27T15:30:45.558Z,95494.11
2023-03-27T15:33:22.187Z,95501.31
2023-03-27T15:35:56.122Z,95504.05
2023-03-27T15:38:29.506Z,95504.32
2023-03-27T15:41:20.950Z,95510.59
2023-03-27T15:43:52.374Z,95516.33
2023-03-27T15:46:24.764Z,95523.75
2023-03-27T15:48:56.753Z,95527.41
2023-03-27T15:51:29.529Z,95534.34
2023-03-27T15:53:57.670Z,95542.49
2023-03-27T15:56:43.835Z,95545.55
2023-03-27T15:59:15.436Z,95553.67
2023-03-27T16:01:53.273Z,95558.77
2023-03-27T16:04:26.674Z,95564.33
2023-03-27T16:07:07.343Z,95565.34
2023-03-27T16:09:58.516Z,95566.83
2023-03-27T16:12:48.594Z,95571.41
2023-03-27T16:15:34.868Z,95572.80
2023-03-27T16:18:30.499Z,95574.73
2023-03-27T16:21:10.822Z,95570.63
2023-03-27T16:23:40.009Z,95568.64
2023-03-27T16:26:32.048Z,95572.55
2023-03-27T16:29:03.394Z,95579.74
2023-03-27T16:31:32.056Z,95580.94
2023-03-27T16:34:01.024Z,95581.45
2023-03-27T16:36:31.776Z,95573.35
2023-03-27T16:39:00.047Z,95562.95
2023-03-27T16:41:28.831Z,95562.88
2023-03-27T16:43:57.486Z,95568.73
2023-03-27T16:46:28.522Z,95571.27
2023-03-27T16:48:57.630Z,95573.13
2023-03-27T16:51:29.111Z,95570.35
2023-03-27T16:53:57.768Z,95568.80
2023-03-27T16:56:26.538Z,95566.92
2023-03-27T16:58:55.962Z,95569.59
2023-03-27T17:01:25.544Z,95572.20
2023-03-27T17:03:54.144Z,95573.39
2023-03-27T17:06:23.051Z,95574.59
2023-03-27T17:08:55.717Z,95573.05
2023-03-27T17:11:24.574Z,95575.13
2023-03-27T17:13:53.017Z,95576.44
2023-03-27T17:16:22.133Z,95580.48
2023-03-27T17:18:52.163Z,95583.55
2023-03-27T17:21:20.230Z,95580.67
2023-03-27T17:23:48.921Z,95578.95
2023-03-27T17:26:25.492Z,95580.80
2023-03-27T17:28:54.845Z,95582.77
2023-03-27T17:31:23.119Z,95578.55
2023-03-27T17:33:51.745Z,95577.62
2023-03-27T17:36:33.113Z,95577.08
2023-03-27T17:39:08.488Z,95584.59
2023-03-27T17:41:36.597Z,95586.42
2023-03-27T17:44:07.426Z,95589.58
2023-03-27T17:46:36.228Z,95589.30
2023-03-27T17:49:04.772Z,95589.60
2023-03-27T17:51:34.532Z,95595.86
2023-03-27T17:54:02.841Z,95597.13
2023-03-27T17:56:31.523Z,95599.60
2023-03-27T17:59:01.069Z,95598.38
2023-03-27T18:01:29.478Z,95598.33
2023-03-27T18:04:00.697Z,95599.56
2023-03-27T18:06:29.212Z,95602.36
2023-03-27T18:08:57.348Z,95606.84
2023-03-27T18:11:25.994Z,95611.33
2023-03-27T18:13:54.129Z,95609.04
2023-03-27T18:16:23.319Z,95611.31
2023-03-27T18:18:54.439Z,95611.23
2023-03-27T18:21:23.280Z,95615.05
2023-03-27T18:23:53.848Z,95614.95
2023-03-27T18:26:22.142Z,95618.98
2023-03-27T18:28:51.631Z,95616.86
2023-03-27T18:31:20.111Z,95616.15
2023-03-27T18:33:48.274Z,95613.73
2023-03-27T18:36:17.117Z,95612.45
2023-03-27T18:38:47.757Z,95611.49
2023-03-27T18:41:17.741Z,95608.30
2023-03-27T18:43:46.185Z,95610.67
2023-03-27T18:46:17.201Z,95615.64
2023-03-27T18:48:48.825Z,95618.73
2023-03-27T18:51:20.420Z,95621.98
2023-03-27T18:53:49.846Z,95626.27
2023-03-27T18:56:18.794Z,95628.05
2023-03-27T18:58:47.460Z,95629.36
2023-03-27T19:01:16.214Z,95629.14
2023-03-27T19:03:44.882Z,95630.59
2023-03-27T19:06:13.596Z,95634.56
2023-03-27T19:08:46.960Z,95639.59
2023-03-27T19:11:15.542Z,95644.69
2023-03-27T19:14:10.272Z,95644.33
2023-03-27T19:16:44.686Z,95648.07
2023-03-27T19:19:32.199Z,95650.14
2023-03-27T19:22:19.505Z,95651.34
2023-03-27T19:24:53.660Z,95650.16
2023-03-27T19:27:22.961Z,95649.28
2023-03-27T19:29:53.931Z,95647.73
2023-03-27T19:32:24.311Z,95645.72
2023-03-27T19:34:52.557Z,95645.45
2023-03-27T19:37:20.981Z,95647.27
2023-03-27T19:39:49.113Z,95651.98
2023-03-27T19:42:17.909Z,95654.94
2023-03-27T19:44:46.200Z,95656.30
2023-03-27T19:47:14.493Z,95652.76
2023-03-27T19:49:42.807Z,95652.17
2023-03-27T19:52:31.246Z,95652.12
2023-03-27T19:54:59.476Z,95646.20
2023-03-27T19:57:27.746Z,95647.73
2023-03-27T19:59:56.178Z,95650.55
2023-03-27T20:02:24.232Z,95654.27
2023-03-27T20:04:53.208Z,95654.91
2023-03-27T20:07:21.467Z,95655.42
2023-03-27T20:09:49.526Z,95655.85
2023-03-27T20:12:19.914Z,95658.55
2023-03-27T20:14:58.713Z,95659.55
2023-03-27T20:17:36.338Z,95657.30
2023-03-27T20:20:06.348Z,95664.02
2023-03-27T20:22:40.720Z,95666.14
2023-03-27T20:25:15.217Z,95667.80
2023-03-27T20:27:44.005Z,95673.67
2023-03-27T20:30:14.531Z,95686.77
2023-03-27T20:32:42.883Z,95707.86
2023-03-27T20:35:22.864Z,95717.35
2023-03-27T20:37:56.780Z,95728.48
2023-03-27T20:40:26.150Z,95742.80
2023-03-27T20:43:03.727Z,95732.23
2023-03-27T20:45:31.877Z,95747.52
2023-03-27T20:48:04.286Z,95770.52
2023-03-27T20:50:35.553Z,95788.49
2023-03-27T20:53:04.875Z,95801.71
2023-03-27T20:55:37.522Z,95807.56
2023-03-27T20:58:13.688Z,95818.98
2023-03-27T21:00:43.919Z,95839.14
2023-03-27T21:03:12.486Z,95840.69
2023-03-27T21:05:41.453Z,95845.16
2023-03-27T21:08:09.691Z,95854.36
2023-03-27T21:10:38.976Z,95864.41
2023-03-27T21:13:07.220Z,95870.95
2023-03-27T21:15:35.480Z,95871.95
2023-03-27T21:18:03.654Z,95868.29
2023-03-27T21:20:34.607Z,95860.48
2023-03-27T21:23:03.731Z,95855.70
2023-03-27T21:25:35.041Z,95868.98
2023-03-27T21:28:06.386Z,95869.61
2023-03-27T21:30:47.025Z,95879.23
2023-03-27T21:33:17.148Z,95885.73
2023-03-27T21:35:47.658Z,95894.42
2023-03-27T21:38:17.503Z,95900.40
2023-03-27T21:40:47.084Z,95893.13
2023-03-27T21:43:15.488Z,95898.64
2023-03-27T21:45:43.665Z,95911.88
2023-03-27T21:48:12.072Z,95916.05
2023-03-27T21:50:40.403Z,95914.95
2023-03-27T21:53:09.055Z,95927.92
2023-03-27T21:55:37.694Z,95924.46
2023-03-27T21:58:06.362Z,95926.27
2023-03-27T22:00:35.001Z,95928.77
2023-03-27T22:03:03.181Z,95923.56
2023-03-27T22:05:31.361Z,95935.00
2023-03-27T22:07:59.450Z,95950.39
2023-03-27T22:10:27.606Z,95949.80
2023-03-27T22:12:55.773Z,95955.55
2023-03-27T22:15:24.050Z,95959.66
2023-03-27T22:17:52.719Z,95976.98
2023-03-27T22:20:23.919Z,95983.39
2023-03-27T22:22:52.421Z,95992.83
2023-03-27T22:25:23.278Z,95998.98
2023-03-27T22:27:51.651Z,95999.88
2023-03-27T22:30:20.119Z,96004.11
2023-03-27T22:32:48.289Z,96019.63
2023-03-27T22:35:16.579Z,96028.39
2023-03-27T22:37:44.932Z,96033.25
2023-03-27T22:40:13.328Z,96039.87
2023-03-27T22:42:41.762Z,96050.84
2023-03-27T22:45:10.576Z,96052.97
2023-03-27T22:47:38.797Z,96056.45
2023-03-27T22:50:08.890Z,96058.71
2023-03-27T22:52:37.128Z,96065.74
2023-03-27T22:55:05.972Z,96070.08
2023-03-27T22:57:37.054Z,96072.00
2023-03-27T23:00:07.166Z,96072.91
2023-03-27T23:02:35.574Z,96090.70
2023-03-27T23:05:04.490Z,96081.99
2023-03-27T23:07:32.836Z,96092.61
2023-03-27T23:10:01.205Z,96084.77
2023-03-27T23:12:29.484Z,96096.80
2023-03-27T23:14:58.188Z,96095.27
2023-03-27T23:17:27.600Z,96109.77
2023-03-27T23:19:56.351Z,96104.89
2023-03-27T23:22:24.693Z,96115.77
2023-03-27T23:24:52.845Z,96123.36
2023-03-27T23:27:21.314Z,96120.77
2023-03-27T23:29:49.797Z,96118.91
2023-03-27T23:32:17.964Z,96131.98
2023-03-27T23:34:46.139Z,96140.66
2023-03-27T23:37:14.312Z,96141.57
2023-03-27T23:39:42.701Z,96153.10
2023-03-27T23:42:10.906Z,96153.08
2023-03-27T23:44:39.336Z,96152.23
2023-03-27T23:47:07.588Z,96166.18
2023-03-27T23:49:35.792Z,96165.15
2023-03-27T23:52:03.802Z,96175.88
2023-03-27T23:54:32.092Z,96168.13
2023-03-27T23:57:00.177Z,96183.23
2023-03-27T23:59:28.399Z,96189.45
